sensor_id;sensor_type;location;lat;lon;timestamp;pressure;altitude;pressure_sealevel;temperature;humidity
50682;BME280;36779;52.168;20.878;2022-07-29T00:02:56;101025.46;;;13.40;57.49
50682;BME280;36779;52.168;20.878;2022-07-29T00:05:45;101027.93;;;13.36;57.63
50682;BME280;36779;52.168;20.878;2022-07-29T00:08:35;101029.73;;;13.37;57.76
50682;BME280;36779;52.168;20.878;2022-07-29T00:11:24;101031.19;;;13.42;57.77
50682;BME280;36779;52.168;20.878;2022-07-29T00:13:59;101030.71;;;13.38;57.74
50682;BME280;36779;52.168;20.878;2022-07-29T00:16:47;101030.09;;;13.29;57.69
50682;BME280;36779;52.168;20.878;2022-07-29T00:22:38;101032.33;;;13.12;57.77
50682;BME280;36779;52.168;20.878;2022-07-29T00:25:28;101035.39;;;13.07;57.91
50682;BME280;36779;52.168;20.878;2022-07-29T00:28:18;101033.27;;;13.00;57.83
50682;BME280;36779;52.168;20.878;2022-07-29T00:31:08;101029.85;;;12.98;58.12
50682;BME280;36779;52.168;20.878;2022-07-29T00:33:57;101032.97;;;13.02;58.32
50682;BME280;36779;52.168;20.878;2022-07-29T00:36:51;101034.59;;;13.07;58.32
50682;BME280;36779;52.168;20.878;2022-07-29T00:39:41;101032.88;;;13.04;58.21
50682;BME280;36779;52.168;20.878;2022-07-29T00:42:31;101029.11;;;13.03;58.43
50682;BME280;36779;52.168;20.878;2022-07-29T00:45:30;101026.23;;;13.03;58.58
50682;BME280;36779;52.168;20.878;2022-07-29T00:48:20;101018.92;;;13.05;58.61
50682;BME280;36779;52.168;20.878;2022-07-29T00:51:09;101018.98;;;13.16;58.72
50682;BME280;36779;52.168;20.878;2022-07-29T00:53:59;101020.19;;;13.28;58.99
50682;BME280;36779;52.168;20.878;2022-07-29T00:56:58;101014.87;;;13.33;58.74
50682;BME280;36779;52.168;20.878;2022-07-29T00:59:47;101018.14;;;13.22;58.63
50682;BME280;36779;52.168;20.878;2022-07-29T01:02:37;101020.71;;;13.11;58.80
50682;BME280;36779;52.168;20.878;2022-07-29T01:05:28;101023.36;;;13.03;58.67
50682;BME280;36779;52.168;20.878;2022-07-29T01:08:56;101019.92;;;12.97;58.69
50682;BME280;36779;52.168;20.878;2022-07-29T01:11:46;101016.35;;;12.93;58.88
50682;BME280;36779;52.168;20.878;2022-07-29T01:14:38;101014.61;;;12.89;58.86
50682;BME280;36779;52.168;20.878;2022-07-29T01:17:36;101016.55;;;12.86;59.03
50682;BME280;36779;52.168;20.878;2022-07-29T01:20:43;101018.84;;;12.90;59.23
50682;BME280;36779;52.168;20.878;2022-07-29T01:23:52;101018.03;;;12.96;59.52
50682;BME280;36779;52.168;20.878;2022-07-29T01:26:49;101019.70;;;12.97;59.37
50682;BME280;36779;52.168;20.878;2022-07-29T01:29:45;101015.96;;;12.97;59.27
50682;BME280;36779;52.168;20.878;2022-07-29T01:32:39;101019.08;;;13.02;59.53
50682;BME280;36779;52.168;20.878;2022-07-29T01:35:33;101013.89;;;13.08;59.66
50682;BME280;36779;52.168;20.878;2022-07-29T01:38:26;101012.77;;;13.15;59.67
50682;BME280;36779;52.168;20.878;2022-07-29T01:41:10;101018.55;;;13.23;59.87
50682;BME280;36779;52.168;20.878;2022-07-29T01:44:05;101028.16;;;13.32;59.82
50682;BME280;36779;52.168;20.878;2022-07-29T01:47:00;101030.08;;;13.42;59.88
50682;BME280;36779;52.168;20.878;2022-07-29T01:49:52;101026.95;;;13.50;60.05
50682;BME280;36779;52.168;20.878;2022-07-29T01:52:46;101025.98;;;13.52;59.88
50682;BME280;36779;52.168;20.878;2022-07-29T01:55:42;101021.90;;;13.55;60.04
50682;BME280;36779;52.168;20.878;2022-07-29T01:58:33;101020.00;;;13.59;60.00
50682;BME280;36779;52.168;20.878;2022-07-29T02:01:24;101021.27;;;13.64;59.95
50682;BME280;36779;52.168;20.878;2022-07-29T02:04:07;101019.32;;;13.69;60.02
50682;BME280;36779;52.168;20.878;2022-07-29T02:07:01;101025.52;;;13.76;60.23
50682;BME280;36779;52.168;20.878;2022-07-29T02:09:51;101026.56;;;13.83;60.21
50682;BME280;36779;52.168;20.878;2022-07-29T02:12:43;101030.52;;;13.89;60.24
50682;BME280;36779;52.168;20.878;2022-07-29T02:15:40;101027.16;;;13.94;60.45
50682;BME280;36779;52.168;20.878;2022-07-29T02:18:25;101028.67;;;13.96;60.09
50682;BME280;36779;52.168;20.878;2022-07-29T02:21:21;101026.63;;;13.97;60.09
50682;BME280;36779;52.168;20.878;2022-07-29T02:24:12;101021.33;;;13.98;60.30
50682;BME280;36779;52.168;20.878;2022-07-29T02:27:10;101027.36;;;14.03;60.20
50682;BME280;36779;52.168;20.878;2022-07-29T02:30:12;101022.03;;;14.05;60.35
50682;BME280;36779;52.168;20.878;2022-07-29T02:33:04;101019.70;;;13.98;60.08
50682;BME280;36779;52.168;20.878;2022-07-29T02:35:55;101020.30;;;13.98;60.39
50682;BME280;36779;52.168;20.878;2022-07-29T02:38:39;101027.05;;;14.03;60.38
50682;BME280;36779;52.168;20.878;2022-07-29T02:41:37;101025.21;;;14.07;60.53
50682;BME280;36779;52.168;20.878;2022-07-29T02:44:28;101028.33;;;14.09;60.52
50682;BME280;36779;52.168;20.878;2022-07-29T02:47:24;101033.52;;;14.14;60.56
50682;BME280;36779;52.168;20.878;2022-07-29T02:50:11;101025.88;;;14.17;60.80
50682;BME280;36779;52.168;20.878;2022-07-29T02:53:05;101028.70;;;14.17;60.55
50682;BME280;36779;52.168;20.878;2022-07-29T02:55:59;101036.46;;;14.17;60.46
50682;BME280;36779;52.168;20.878;2022-07-29T02:58:55;101035.36;;;14.12;60.48
50682;BME280;36779;52.168;20.878;2022-07-29T03:01:40;101031.52;;;14.09;60.45
50682;BME280;36779;52.168;20.878;2022-07-29T03:04:14;101030.77;;;14.06;60.69
50682;BME280;36779;52.168;20.878;2022-07-29T03:06:59;101029.23;;;14.04;60.76
50682;BME280;36779;52.168;20.878;2022-07-29T03:09:50;101025.27;;;14.06;60.65
50682;BME280;36779;52.168;20.878;2022-07-29T03:12:40;101021.91;;;14.07;60.93
50682;BME280;36779;52.168;20.878;2022-07-29T03:15:31;101021.79;;;14.12;61.00
50682;BME280;36779;52.168;20.878;2022-07-29T03:18:21;101019.40;;;14.16;61.10
50682;BME280;36779;52.168;20.878;2022-07-29T03:21:10;101030.92;;;14.18;61.05
50682;BME280;36779;52.168;20.878;2022-07-29T03:24:00;101024.81;;;14.20;61.14
50682;BME280;36779;52.168;20.878;2022-07-29T03:26:57;101027.50;;;14.23;60.90
50682;BME280;36779;52.168;20.878;2022-07-29T03:29:37;101022.17;;;14.26;60.84
50682;BME280;36779;52.168;20.878;2022-07-29T03:32:38;101023.86;;;14.28;60.94
50682;BME280;36779;52.168;20.878;2022-07-29T03:35:28;101026.84;;;14.30;61.19
50682;BME280;36779;52.168;20.878;2022-07-29T03:38:10;101027.28;;;14.31;61.09
50682;BME280;36779;52.168;20.878;2022-07-29T03:41:03;101023.52;;;14.33;61.15
50682;BME280;36779;52.168;20.878;2022-07-29T03:43:53;101020.43;;;14.35;61.06
50682;BME280;36779;52.168;20.878;2022-07-29T03:46:44;101024.82;;;14.38;61.27
50682;BME280;36779;52.168;20.878;2022-07-29T03:49:35;101030.17;;;14.44;61.34
50682;BME280;36779;52.168;20.878;2022-07-29T03:52:25;101030.50;;;14.48;61.50
50682;BME280;36779;52.168;20.878;2022-07-29T03:55:18;101033.55;;;14.49;61.29
50682;BME280;36779;52.168;20.878;2022-07-29T03:58:10;101032.97;;;14.51;61.31
50682;BME280;36779;52.168;20.878;2022-07-29T04:00:59;101036.38;;;14.54;61.51
50682;BME280;36779;52.168;20.878;2022-07-29T04:03:50;101032.65;;;14.57;61.40
50682;BME280;36779;52.168;20.878;2022-07-29T04:06:41;101033.23;;;14.62;61.33
50682;BME280;36779;52.168;20.878;2022-07-29T04:10:16;101032.33;;;14.65;61.40
50682;BME280;36779;52.168;20.878;2022-07-29T04:13:16;101038.90;;;14.71;61.50
50682;BME280;36779;52.168;20.878;2022-07-29T04:16:07;101036.88;;;14.77;61.50
50682;BME280;36779;52.168;20.878;2022-07-29T04:18:57;101035.91;;;14.82;61.71
50682;BME280;36779;52.168;20.878;2022-07-29T04:21:47;101036.99;;;14.89;61.58
50682;BME280;36779;52.168;20.878;2022-07-29T04:24:36;101033.54;;;14.95;61.76
50682;BME280;36779;52.168;20.878;2022-07-29T04:27:26;101034.42;;;15.02;61.87
50682;BME280;36779;52.168;20.878;2022-07-29T04:30:15;101033.40;;;15.09;61.89
50682;BME280;36779;52.168;20.878;2022-07-29T04:33:06;101033.06;;;15.17;61.97
50682;BME280;36779;52.168;20.878;2022-07-29T04:35:51;101036.93;;;15.26;62.05
50682;BME280;36779;52.168;20.878;2022-07-29T04:38:43;101031.89;;;15.38;62.23
50682;BME280;36779;52.168;20.878;2022-07-29T04:41:32;101031.09;;;15.48;62.10
50682;BME280;36779;52.168;20.878;2022-07-29T04:44:22;101033.34;;;15.57;62.05
50682;BME280;36779;52.168;20.878;2022-07-29T04:47:16;101037.67;;;15.67;62.01
50682;BME280;36779;52.168;20.878;2022-07-29T04:50:18;101037.05;;;15.75;62.22
50682;BME280;36779;52.168;20.878;2022-07-29T04:53:00;101046.95;;;15.89;62.25
50682;BME280;36779;52.168;20.878;2022-07-29T04:55:52;101049.14;;;15.98;61.96
50682;BME280;36779;52.168;20.878;2022-07-29T04:58:41;101047.85;;;16.08;62.03
50682;BME280;36779;52.168;20.878;2022-07-29T05:01:31;101046.44;;;16.18;61.91
50682;BME280;36779;52.168;20.878;2022-07-29T05:04:20;101049.70;;;16.28;62.19
50682;BME280;36779;52.168;20.878;2022-07-29T05:07:09;101051.96;;;16.38;62.09
50682;BME280;36779;52.168;20.878;2022-07-29T05:09:59;101051.64;;;16.47;61.94
50682;BME280;36779;52.168;20.878;2022-07-29T05:12:48;101055.70;;;16.53;61.84
50682;BME280;36779;52.168;20.878;2022-07-29T05:15:39;101057.11;;;16.62;62.08
50682;BME280;36779;52.168;20.878;2022-07-29T05:18:29;101064.25;;;16.72;61.85
50682;BME280;36779;52.168;20.878;2022-07-29T05:21:18;101068.52;;;16.87;61.93
50682;BME280;36779;52.168;20.878;2022-07-29T05:24:08;101064.95;;;17.18;62.12
50682;BME280;36779;52.168;20.878;2022-07-29T05:26:57;101069.76;;;17.38;61.96
50682;BME280;36779;52.168;20.878;2022-07-29T05:29:47;101070.48;;;17.77;62.37
50682;BME280;36779;52.168;20.878;2022-07-29T05:32:25;101063.04;;;18.18;62.43
50682;BME280;36779;52.168;20.878;2022-07-29T05:35:15;101063.06;;;18.44;62.46
50682;BME280;36779;52.168;20.878;2022-07-29T05:38:04;101062.58;;;18.87;62.43
50682;BME280;36779;52.168;20.878;2022-07-29T05:40:57;101061.05;;;19.14;61.97
50682;BME280;36779;52.168;20.878;2022-07-29T05:44:17;101058.77;;;19.35;61.77
50682;BME280;36779;52.168;20.878;2022-07-29T05:47:06;101055.27;;;19.64;61.69
50682;BME280;36779;52.168;20.878;2022-07-29T05:49:55;101050.31;;;19.90;61.41
50682;BME280;36779;52.168;20.878;2022-07-29T05:52:45;101046.27;;;20.08;61.23
50682;BME280;36779;52.168;20.878;2022-07-29T05:55:34;101048.32;;;20.24;60.89
50682;BME280;36779;52.168;20.878;2022-07-29T05:58:26;101052.17;;;20.28;60.51
50682;BME280;36779;52.168;20.878;2022-07-29T06:01:16;101045.76;;;20.33;60.29
50682;BME280;36779;52.168;20.878;2022-07-29T06:04:06;101043.91;;;20.40;60.13
50682;BME280;36779;52.168;20.878;2022-07-29T06:06:55;101042.38;;;20.53;60.07
50682;BME280;36779;52.168;20.878;2022-07-29T06:09:45;101038.65;;;20.62;59.93
50682;BME280;36779;52.168;20.878;2022-07-29T06:12:25;101041.59;;;20.67;59.59
50682;BME280;36779;52.168;20.878;2022-07-29T06:15:15;101040.89;;;20.71;59.17
50682;BME280;36779;52.168;20.878;2022-07-29T06:18:04;101039.34;;;20.81;58.98
50682;BME280;36779;52.168;20.878;2022-07-29T06:20:57;101036.66;;;20.88;58.76
50682;BME280;36779;52.168;20.878;2022-07-29T06:28:09;101038.75;;;20.82;58.34
50682;BME280;36779;52.168;20.878;2022-07-29T06:30:59;101036.65;;;20.64;58.32
50682;BME280;36779;52.168;20.878;2022-07-29T06:33:50;101037.83;;;20.50;58.39
50682;BME280;36779;52.168;20.878;2022-07-29T06:36:35;101038.13;;;20.40;58.41
50682;BME280;36779;52.168;20.878;2022-07-29T06:39:42;101042.92;;;20.30;58.44
50682;BME280;36779;52.168;20.878;2022-07-29T06:42:30;101042.23;;;20.19;58.38
50682;BME280;36779;52.168;20.878;2022-07-29T06:45:20;101045.70;;;20.14;58.43
50682;BME280;36779;52.168;20.878;2022-07-29T06:48:09;101045.38;;;20.10;58.52
50682;BME280;36779;52.168;20.878;2022-07-29T06:50:59;101042.58;;;20.08;58.47
50682;BME280;36779;52.168;20.878;2022-07-29T06:53:50;101044.16;;;20.04;58.48
50682;BME280;36779;52.168;20.878;2022-07-29T06:56:51;101045.90;;;20.00;58.49
50682;BME280;36779;52.168;20.878;2022-07-29T06:59:40;101048.91;;;20.01;58.56
50682;BME280;36779;52.168;20.878;2022-07-29T07:02:29;101049.61;;;19.99;58.38
50682;BME280;36779;52.168;20.878;2022-07-29T07:05:09;101046.02;;;19.90;58.29
50682;BME280;36779;52.168;20.878;2022-07-29T07:08:13;101047.83;;;19.87;58.40
50682;BME280;36779;52.168;20.878;2022-07-29T07:15:06;101044.06;;;19.90;58.39
50682;BME280;36779;52.168;20.878;2022-07-29T07:17:55;101043.98;;;19.95;58.43
50682;BME280;36779;52.168;20.878;2022-07-29T07:20:45;101041.25;;;20.01;58.45
50682;BME280;36779;52.168;20.878;2022-07-29T07:23:34;101039.66;;;20.08;58.36
50682;BME280;36779;52.168;20.878;2022-07-29T07:26:23;101039.45;;;20.15;58.25
50682;BME280;36779;52.168;20.878;2022-07-29T07:29:13;101039.20;;;20.19;58.34
50682;BME280;36779;52.168;20.878;2022-07-29T07:32:03;101033.73;;;20.25;58.23
50682;BME280;36779;52.168;20.878;2022-07-29T07:34:52;101033.52;;;20.30;58.28
50682;BME280;36779;52.168;20.878;2022-07-29T07:37:41;101036.66;;;20.35;58.22
50682;BME280;36779;52.168;20.878;2022-07-29T07:40:31;101040.25;;;20.40;58.17
50682;BME280;36779;52.168;20.878;2022-07-29T07:43:20;101037.40;;;20.48;58.17
50682;BME280;36779;52.168;20.878;2022-07-29T07:46:10;101037.08;;;20.56;57.98
50682;BME280;36779;52.168;20.878;2022-07-29T07:48:59;101042.28;;;20.61;58.16
50682;BME280;36779;52.168;20.878;2022-07-29T07:51:51;101038.08;;;20.71;58.04
50682;BME280;36779;52.168;20.878;2022-07-29T07:55:08;101036.88;;;20.83;57.98
50682;BME280;36779;52.168;20.878;2022-07-29T07:57:57;101041.68;;;20.93;57.89
50682;BME280;36779;52.168;20.878;2022-07-29T08:00:48;101040.86;;;20.99;57.79
50682;BME280;36779;52.168;20.878;2022-07-29T08:03:39;101039.23;;;21.10;57.79
50682;BME280;36779;52.168;20.878;2022-07-29T08:06:29;101041.65;;;21.17;57.66
50682;BME280;36779;52.168;20.878;2022-07-29T08:09:18;101035.73;;;21.26;57.65
50682;BME280;36779;52.168;20.878;2022-07-29T08:12:18;101039.41;;;21.36;57.57
50682;BME280;36779;52.168;20.878;2022-07-29T08:15:12;101036.73;;;21.43;57.45
50682;BME280;36779;52.168;20.878;2022-07-29T08:17:53;101034.54;;;21.50;57.30
50682;BME280;36779;52.168;20.878;2022-07-29T08:20:42;101034.87;;;21.56;57.20
50682;BME280;36779;52.168;20.878;2022-07-29T08:23:32;101031.85;;;21.65;57.25
50682;BME280;36779;52.168;20.878;2022-07-29T08:26:38;101032.51;;;21.78;57.21
50682;BME280;36779;52.168;20.878;2022-07-29T08:29:27;101035.97;;;21.94;57.11
50682;BME280;36779;52.168;20.878;2022-07-29T08:32:17;101033.98;;;22.07;56.88
50682;BME280;36779;52.168;20.878;2022-07-29T08:35:26;101034.48;;;22.18;56.95
50682;BME280;36779;52.168;20.878;2022-07-29T08:38:23;101034.61;;;22.28;56.71
50682;BME280;36779;52.168;20.878;2022-07-29T08:41:12;101030.61;;;22.39;56.71
50682;BME280;36779;52.168;20.878;2022-07-29T08:44:02;101037.33;;;22.57;56.70
50682;BME280;36779;52.168;20.878;2022-07-29T08:46:52;101028.77;;;22.77;56.59
50682;BME280;36779;52.168;20.878;2022-07-29T08:49:42;101031.59;;;22.91;56.23
50682;BME280;36779;52.168;20.878;2022-07-29T08:52:41;101028.63;;;23.03;56.11
50682;BME280;36779;52.168;20.878;2022-07-29T08:55:30;101029.91;;;23.24;56.10
50682;BME280;36779;52.168;20.878;2022-07-29T08:58:20;101031.61;;;23.49;56.13
50682;BME280;36779;52.168;20.878;2022-07-29T09:01:16;101019.88;;;23.85;56.04
50682;BME280;36779;52.168;20.878;2022-07-29T09:04:11;101018.19;;;24.19;55.72
50682;BME280;36779;52.168;20.878;2022-07-29T09:07:03;101013.39;;;24.42;55.27
50682;BME280;36779;52.168;20.878;2022-07-29T09:09:56;101021.65;;;24.55;54.98
50682;BME280;36779;52.168;20.878;2022-07-29T09:12:46;101016.83;;;24.83;54.94
50682;BME280;36779;52.168;20.878;2022-07-29T09:15:39;101013.38;;;25.09;54.64
50682;BME280;36779;52.168;20.878;2022-07-29T09:18:37;101019.33;;;25.25;54.14
50682;BME280;36779;52.168;20.878;2022-07-29T09:21:33;101018.58;;;25.32;53.84
50682;BME280;36779;52.168;20.878;2022-07-29T09:24:48;101016.91;;;25.22;53.43
50682;BME280;36779;52.168;20.878;2022-07-29T09:27:32;101016.16;;;25.22;53.52
50682;BME280;36779;52.168;20.878;2022-07-29T09:30:22;101009.98;;;25.45;53.68
50682;BME280;36779;52.168;20.878;2022-07-29T09:33:21;101006.88;;;25.93;53.83
50682;BME280;36779;52.168;20.878;2022-07-29T09:36:10;101004.82;;;26.12;53.13
50682;BME280;36779;52.168;20.878;2022-07-29T09:39:03;101003.36;;;26.13;52.87
50682;BME280;36779;52.168;20.878;2022-07-29T09:41:53;100996.98;;;26.18;52.54
50682;BME280;36779;52.168;20.878;2022-07-29T09:44:47;100998.13;;;26.07;52.15
50682;BME280;36779;52.168;20.878;2022-07-29T09:47:45;100996.14;;;26.05;52.27
50682;BME280;36779;52.168;20.878;2022-07-29T09:50:40;101004.80;;;26.15;52.04
50682;BME280;36779;52.168;20.878;2022-07-29T09:53:33;101005.57;;;25.97;51.31
50682;BME280;36779;52.168;20.878;2022-07-29T09:56:39;101000.90;;;25.69;51.21
50682;BME280;36779;52.168;20.878;2022-07-29T09:59:18;100997.17;;;25.50;51.07
50682;BME280;36779;52.168;20.878;2022-07-29T10:02:13;100993.86;;;25.35;51.05
50682;BME280;36779;52.168;20.878;2022-07-29T10:05:20;100998.61;;;25.28;51.09
50682;BME280;36779;52.168;20.878;2022-07-29T10:08:10;100994.52;;;25.27;51.04
50682;BME280;36779;52.168;20.878;2022-07-29T10:11:10;100988.73;;;25.16;50.80
50682;BME280;36779;52.168;20.878;2022-07-29T10:13:53;100984.55;;;24.94;50.73
50682;BME280;36779;52.168;20.878;2022-07-29T10:16:42;100979.88;;;24.83;50.79
50682;BME280;36779;52.168;20.878;2022-07-29T10:19:32;100975.60;;;24.77;50.74
50682;BME280;36779;52.168;20.878;2022-07-29T10:22:24;100969.97;;;24.77;50.88
50682;BME280;36779;52.168;20.878;2022-07-29T10:25:34;100972.05;;;24.83;50.97
50682;BME280;36779;52.168;20.878;2022-07-29T10:28:24;100972.94;;;24.92;50.95
50682;BME280;36779;52.168;20.878;2022-07-29T10:31:06;100968.06;;;25.07;50.98
50682;BME280;36779;52.168;20.878;2022-07-29T10:34:04;100970.63;;;25.32;51.05
50682;BME280;36779;52.168;20.878;2022-07-29T10:37:03;100975.89;;;25.50;50.88
50682;BME280;36779;52.168;20.878;2022-07-29T10:40:03;100973.48;;;25.69;50.64
50682;BME280;36779;52.168;20.878;2022-07-29T10:43:18;100970.13;;;25.87;50.69
50682;BME280;36779;52.168;20.878;2022-07-29T10:46:11;100964.81;;;26.16;50.55
50682;BME280;36779;52.168;20.878;2022-07-29T10:49:09;100970.14;;;26.21;50.01
50682;BME280;36779;52.168;20.878;2022-07-29T10:52:02;100964.63;;;26.09;49.84
50682;BME280;36779;52.168;20.878;2022-07-29T10:54:54;100966.58;;;26.16;49.85
50682;BME280;36779;52.168;20.878;2022-07-29T10:58:11;100960.70;;;26.22;49.74
50682;BME280;36779;52.168;20.878;2022-07-29T11:01:28;100958.79;;;26.18;49.29
50682;BME280;36779;52.168;20.878;2022-07-29T11:04:59;100954.16;;;26.03;49.26
50682;BME280;36779;52.168;20.878;2022-07-29T11:08:20;100954.92;;;26.04;49.28
50682;BME280;36779;52.168;20.878;2022-07-29T11:11:34;100948.42;;;26.08;49.25
50682;BME280;36779;52.168;20.878;2022-07-29T11:18:08;100946.35;;;26.24;49.23
50682;BME280;36779;52.168;20.878;2022-07-29T11:21:35;100946.84;;;26.32;49.02
50682;BME280;36779;52.168;20.878;2022-07-29T11:24:44;100944.26;;;26.39;48.93
50682;BME280;36779;52.168;20.878;2022-07-29T11:27:38;100941.33;;;26.37;48.65
50682;BME280;36779;52.168;20.878;2022-07-29T11:30:51;100941.27;;;26.32;48.52
50682;BME280;36779;52.168;20.878;2022-07-29T11:33:42;100936.29;;;26.39;48.65
50682;BME280;36779;52.168;20.878;2022-07-29T11:37:14;100937.20;;;26.49;48.63
50682;BME280;36779;52.168;20.878;2022-07-29T11:40:13;100931.07;;;26.66;48.53
50682;BME280;36779;52.168;20.878;2022-07-29T11:42:47;100928.75;;;26.69;48.25
50682;BME280;36779;52.168;20.878;2022-07-29T11:45:46;100926.21;;;26.93;48.60
50682;BME280;36779;52.168;20.878;2022-07-29T11:48:31;100927.20;;;27.32;48.60
50682;BME280;36779;52.168;20.878;2022-07-29T11:51:23;100927.07;;;27.68;48.28
50682;BME280;36779;52.168;20.878;2022-07-29T11:54:33;100922.66;;;28.05;48.23
50682;BME280;36779;52.168;20.878;2022-07-29T11:57:53;100922.45;;;28.26;47.64
50682;BME280;36779;52.168;20.878;2022-07-29T12:00:52;100918.34;;;28.36;47.53
50682;BME280;36779;52.168;20.878;2022-07-29T12:03:44;100918.02;;;28.65;47.53
50682;BME280;36779;52.168;20.878;2022-07-29T12:06:33;100920.27;;;28.82;47.20
50682;BME280;36779;52.168;20.878;2022-07-29T12:09:16;100914.26;;;28.95;47.02
50682;BME280;36779;52.168;20.878;2022-07-29T12:12:08;100912.16;;;29.17;46.88
50682;BME280;36779;52.168;20.878;2022-07-29T12:14:58;100914.59;;;29.27;46.41
50682;BME280;36779;52.168;20.878;2022-07-29T12:18:10;100912.13;;;29.32;46.08
50682;BME280;36779;52.168;20.878;2022-07-29T12:20:57;100912.73;;;29.34;45.92
50682;BME280;36779;52.168;20.878;2022-07-29T12:23:54;100912.17;;;29.45;45.79
50682;BME280;36779;52.168;20.878;2022-07-29T12:26:54;100913.33;;;29.55;45.53
50682;BME280;36779;52.168;20.878;2022-07-29T12:29:44;100916.40;;;29.42;45.07
50682;BME280;36779;52.168;20.878;2022-07-29T12:32:38;100903.98;;;29.11;44.95
50682;BME280;36779;52.168;20.878;2022-07-29T12:35:28;100898.91;;;28.78;44.88
50682;BME280;36779;52.168;20.878;2022-07-29T12:38:18;100898.67;;;28.51;44.84
50682;BME280;36779;52.168;20.878;2022-07-29T12:40:53;100902.36;;;28.23;44.76
50682;BME280;36779;52.168;20.878;2022-07-29T12:43:53;100900.06;;;28.00;44.66
50682;BME280;36779;52.168;20.878;2022-07-29T12:46:42;100900.64;;;27.77;44.82
50682;BME280;36779;52.168;20.878;2022-07-29T12:49:30;100907.36;;;27.69;44.93
50682;BME280;36779;52.168;20.878;2022-07-29T12:52:27;100903.27;;;27.58;44.86
50682;BME280;36779;52.168;20.878;2022-07-29T12:55:44;100903.94;;;27.52;44.89
50682;BME280;36779;52.168;20.878;2022-07-29T12:58:40;100902.98;;;27.57;44.85
50682;BME280;36779;52.168;20.878;2022-07-29T13:01:19;100901.40;;;27.63;44.91
50682;BME280;36779;52.168;20.878;2022-07-29T13:04:09;100895.70;;;27.76;44.97
50682;BME280;36779;52.168;20.878;2022-07-29T13:07:02;100889.87;;;27.90;44.92
50682;BME280;36779;52.168;20.878;2022-07-29T13:09:53;100878.80;;;27.98;44.67
50682;BME280;36779;52.168;20.878;2022-07-29T13:13:01;100878.03;;;27.99;44.63
50682;BME280;36779;52.168;20.878;2022-07-29T13:16:07;100877.58;;;28.17;44.55
50682;BME280;36779;52.168;20.878;2022-07-29T13:19:07;100875.44;;;28.17;44.35
50682;BME280;36779;52.168;20.878;2022-07-29T13:21:56;100874.20;;;28.24;44.51
50682;BME280;36779;52.168;20.878;2022-07-29T13:24:47;100874.56;;;28.34;44.35
50682;BME280;36779;52.168;20.878;2022-07-29T13:27:38;100869.16;;;28.49;44.27
50682;BME280;36779;52.168;20.878;2022-07-29T13:30:29;100867.20;;;28.58;44.04
50682;BME280;36779;52.168;20.878;2022-07-29T13:33:08;100864.80;;;28.58;43.88
50682;BME280;36779;52.168;20.878;2022-07-29T13:35:57;100866.73;;;28.62;43.84
50682;BME280;36779;52.168;20.878;2022-07-29T13:38:46;100862.70;;;28.72;43.75
50682;BME280;36779;52.168;20.878;2022-07-29T13:41:36;100865.36;;;28.67;43.45
50682;BME280;36779;52.168;20.878;2022-07-29T13:44:25;100864.61;;;28.50;43.35
50682;BME280;36779;52.168;20.878;2022-07-29T13:47:24;100857.65;;;28.24;43.19
50682;BME280;36779;52.168;20.878;2022-07-29T13:50:21;100859.19;;;28.02;43.29
50682;BME280;36779;52.168;20.878;2022-07-29T13:53:11;100857.80;;;27.97;43.34
50682;BME280;36779;52.168;20.878;2022-07-29T13:56:05;100856.29;;;27.93;43.45
50682;BME280;36779;52.168;20.878;2022-07-29T13:58:45;100850.66;;;28.05;43.47
50682;BME280;36779;52.168;20.878;2022-07-29T14:01:25;100846.27;;;28.16;43.25
50682;BME280;36779;52.168;20.878;2022-07-29T14:04:16;100846.95;;;28.10;43.24
50682;BME280;36779;52.168;20.878;2022-07-29T14:07:06;100846.80;;;28.11;43.12
50682;BME280;36779;52.168;20.878;2022-07-29T14:09:55;100847.48;;;28.04;42.82
50682;BME280;36779;52.168;20.878;2022-07-29T14:12:45;100846.33;;;27.84;42.64
50682;BME280;36779;52.168;20.878;2022-07-29T14:15:34;100841.35;;;27.69;42.78
50682;BME280;36779;52.168;20.878;2022-07-29T14:18:27;100839.71;;;27.71;42.88
50682;BME280;36779;52.168;20.878;2022-07-29T14:21:09;100835.05;;;27.70;42.68
50682;BME280;36779;52.168;20.878;2022-07-29T14:23:58;100837.95;;;27.69;42.77
50682;BME280;36779;52.168;20.878;2022-07-29T14:26:48;100832.33;;;27.62;42.50
50682;BME280;36779;52.168;20.878;2022-07-29T14:29:40;100823.70;;;27.50;42.56
50682;BME280;36779;52.168;20.878;2022-07-29T14:32:30;100824.66;;;27.38;42.51
50682;BME280;36779;52.168;20.878;2022-07-29T14:35:19;100820.02;;;27.30;42.55
50682;BME280;36779;52.168;20.878;2022-07-29T14:38:14;100820.05;;;27.27;42.56
50682;BME280;36779;52.168;20.878;2022-07-29T14:41:03;100826.27;;;27.06;42.31
50682;BME280;36779;52.168;20.878;2022-07-29T14:43:53;100824.65;;;26.78;42.12
50682;BME280;36779;52.168;20.878;2022-07-29T14:46:42;100820.88;;;26.52;42.27
50682;BME280;36779;52.168;20.878;2022-07-29T14:49:27;100821.84;;;26.32;42.34
50682;BME280;36779;52.168;20.878;2022-07-29T14:52:17;100821.50;;;26.12;42.40
50682;BME280;36779;52.168;20.878;2022-07-29T14:55:08;100817.23;;;26.02;42.62
50682;BME280;36779;52.168;20.878;2022-07-29T14:58:08;100813.09;;;25.94;42.54
50682;BME280;36779;52.168;20.878;2022-07-29T15:01:04;100806.02;;;25.92;42.77
50682;BME280;36779;52.168;20.878;2022-07-29T15:03:54;100806.71;;;25.95;42.70
50682;BME280;36779;52.168;20.878;2022-07-29T15:06:48;100802.96;;;25.88;42.64
50682;BME280;36779;52.168;20.878;2022-07-29T15:09:37;100793.50;;;25.76;42.67